Flight Track Log - Related Links

Times and Time Zones

All times are in EDT time to prevent confusion due to time zone crossing. See the GJS3657 flight status page for this flight to view local times or setup timezone preferences in your user account.

Time Position Orientation Groundspeed Altitude Reporting Facility
EDT Latitude Longitude Course Direction KTS MPH feet Rate Location/Type
Sun 03:55:28 PM 39.8919 -84.3039 265° West 173 199 3,900  Level Indianapolis Center
Sun 03:56:30 PM 39.9506 -84.3639 322° Northwest 233 268 6,400 2,732 Climbing Indianapolis Center
Sun 03:57:31 PM 40.0175 -84.4158 329° Northwest 272 313 9,500 2,732 Climbing Indianapolis Center
Sun 03:58:33 PM 40.0836 -84.4678 329° Northwest 274 315 12,000 2,032 Climbing Indianapolis Center
Sun 03:59:00 PM 40.2681 -84.5680 323° Northwest  Level FlightAware Approximate
Sun 03:59:35 PM 40.1594 -84.5289 328° Northwest 312 359 13,700  Level Indianapolis Center
Sun 04:00:37 PM 40.2414 -84.5942 329° Northwest 334 384 15,400 1,561 Climbing Indianapolis Center
Sun 04:01:38 PM 40.3331 -84.6658 329° Northwest 371 427 16,900 1,659 Climbing Indianapolis Center
Sun 04:02:40 PM 40.4239 -84.7383 329° Northwest 379 436 18,800 1,452 Climbing Indianapolis Center
Sun 04:03:42 PM 40.5189 -84.8136 329° Northwest 391 450 19,900 1,161 Climbing Indianapolis Center
Sun 04:04:44 PM 40.6175 -84.8939 328° Northwest 408 470 21,200 1,379 Climbing Indianapolis Center
Sun 04:05:09 PM 40.6636 -84.9483 318° Northwest 415 478 21,900 552 Climbing Chicago Center
Sun 04:06:11 PM 40.7319 -85.0644 308° West 406 467 22,000 48 Climbing Chicago Center
Sun 04:07:14 PM 40.7981 -85.1783 308° West 396 456 22,000  Level Chicago Center
Sun 04:08:16 PM 40.8625 -85.2897 307° West 386 444 22,000  Level Chicago Center
Sun 04:09:18 PM 40.9289 -85.4067 307° West 393 452 22,000  Level Chicago Center
Sun 04:10:20 PM 40.9961 -85.5233 307° West 398 458 22,000  Level Chicago Center
Sun 04:11:22 PM 41.0614 -85.6397 307° West 393 452 22,000  Level Chicago Center
Sun 04:12:24 PM 41.1397 -85.7792 307° West 392 451 22,000  Level Chicago Center
Sun 04:13:26 PM 41.2036 -85.8928 307° West 384 442 22,000  Level Chicago Center
Sun 04:14:28 PM 41.2647 -86.0069 305° West 378 435 22,000  Level Chicago Center
Sun 04:15:30 PM 41.3108 -86.1331 296° West 376 433 22,000 -774 Level Chicago Center
Sun 04:16:32 PM 41.3689 -86.2439 305° West 367 422 20,400 -1,694 Descending Chicago Center
Sun 04:17:34 PM 41.4267 -86.3550 305° West 363 418 18,500 -2,129 Descending Chicago Center
Sun 04:18:36 PM 41.4964 -86.4878 305° West 364 419 16,000 -2,226 Descending Chicago Center
Sun 04:19:38 PM 41.5522 -86.5939 305° West 353 406 13,900 -1,872 Descending Chicago Center
Sun 04:20:41 PM 41.6056 -86.6961 305° West 340 391 12,100 -864 Descending Chicago Center
Sun 04:21:43 PM 41.6711 -86.7900 313° West 341 392 12,100 -48 Level Chicago Center
Sun 04:22:45 PM 41.7622 -86.8075 352° North 334 384 12,000 -484 Descending Chicago Center
Sun 04:23:47 PM 41.8536 -86.8281 350° North 335 386 11,100 -484 Descending Chicago Center
Sun 04:24:49 PM 41.9203 -86.9056 319° Northwest 329 379 11,000 -242 Descending Chicago Center
Sun 04:25:51 PM 41.9667 -87.0331 296° West 324 373 10,600 -677 Descending Chicago Center
Sun 04:26:53 PM 41.9831 -87.1339 282° West 278 320 9,600 -871 Descending Chicago Center
Sun 04:27:55 PM 41.9825 -87.2256 270° West 250 288 8,800 -1,113 Descending Chicago Center
Sun 04:28:57 PM 41.9831 -87.3103 271° West 234 269 7,300 -871 Descending Chicago Center
Sun 04:29:59 PM 41.9836 -87.3892 271° West 219 252 7,000 -145 Descending Chicago Center
Sun 04:31:01 PM 41.9831 -87.4633 269° West 177 204 7,000 -484 Level Chicago Center
Sun 04:32:03 PM 41.9833 -87.5300 270° West 181 208 6,000 -1,065 Descending Chicago Center
Sun 04:33:05 PM 41.9828 -87.5972 269° West 183 211 4,800 -1,056 Descending Chicago Center
Sun 04:34:08 PM 41.9844 -87.6656 272° West 185 213 3,800 -952 Descending Chicago Center

Login

Don't have an account? Register now (free) for customized features, flight alerts, and more!